sensor_id;sensor_type;location;lat;lon;timestamp;P1;durP1;ratioP1;P2;durP2;ratioP2
73697;SDS011;62004;42.566;23.164;2022-11-12T00:00:19;33.55;;;18.35;;
73697;SDS011;62004;42.566;23.164;2022-11-12T00:02:44;44.60;;;21.17;;
73697;SDS011;62004;42.566;23.164;2022-11-12T00:05:09;40.10;;;19.57;;
73697;SDS011;62004;42.566;23.164;2022-11-12T00:07:35;41.08;;;20.50;;
73697;SDS011;62004;42.566;23.164;2022-11-12T00:10:00;35.73;;;17.40;;
73697;SDS011;62004;42.566;23.164;2022-11-12T00:12:25;36.03;;;18.58;;
73697;SDS011;62004;42.566;23.164;2022-11-12T00:14:51;33.77;;;18.43;;
73697;SDS011;62004;42.566;23.164;2022-11-12T00:17:17;30.73;;;15.53;;
73697;SDS011;62004;42.566;23.164;2022-11-12T00:19:42;31.58;;;17.42;;
73697;SDS011;62004;42.566;23.164;2022-11-12T00:22:07;30.27;;;14.77;;
73697;SDS011;62004;42.566;23.164;2022-11-12T00:24:33;33.70;;;16.33;;
73697;SDS011;62004;42.566;23.164;2022-11-12T00:26:58;32.57;;;17.47;;
73697;SDS011;62004;42.566;23.164;2022-11-12T00:29:23;26.33;;;14.87;;
73697;SDS011;62004;42.566;23.164;2022-11-12T00:31:48;29.08;;;15.38;;
73697;SDS011;62004;42.566;23.164;2022-11-12T00:34:14;35.20;;;18.33;;
73697;SDS011;62004;42.566;23.164;2022-11-12T00:36:39;32.63;;;17.42;;
73697;SDS011;62004;42.566;23.164;2022-11-12T00:39:05;30.30;;;15.70;;
73697;SDS011;62004;42.566;23.164;2022-11-12T00:41:30;35.90;;;17.77;;
73697;SDS011;62004;42.566;23.164;2022-11-12T00:43:55;29.37;;;17.03;;
73697;SDS011;62004;42.566;23.164;2022-11-12T00:46:20;33.43;;;17.37;;
73697;SDS011;62004;42.566;23.164;2022-11-12T00:48:46;34.53;;;17.00;;
73697;SDS011;62004;42.566;23.164;2022-11-12T00:51:11;35.03;;;18.73;;
73697;SDS011;62004;42.566;23.164;2022-11-12T00:53:36;31.93;;;16.63;;
73697;SDS011;62004;42.566;23.164;2022-11-12T00:56:02;35.73;;;17.53;;
73697;SDS011;62004;42.566;23.164;2022-11-12T00:58:28;32.58;;;17.13;;
73697;SDS011;62004;42.566;23.164;2022-11-12T01:00:54;33.10;;;16.15;;
73697;SDS011;62004;42.566;23.164;2022-11-12T01:03:19;28.98;;;15.20;;
73697;SDS011;62004;42.566;23.164;2022-11-12T01:05:45;32.23;;;14.07;;
73697;SDS011;62004;42.566;23.164;2022-11-12T01:08:10;30.00;;;16.63;;
73697;SDS011;62004;42.566;23.164;2022-11-12T01:10:35;26.10;;;14.23;;
73697;SDS011;62004;42.566;23.164;2022-11-12T01:13:00;28.67;;;14.87;;
73697;SDS011;62004;42.566;23.164;2022-11-12T01:15:26;32.27;;;16.63;;
73697;SDS011;62004;42.566;23.164;2022-11-12T01:17:51;32.60;;;16.53;;
73697;SDS011;62004;42.566;23.164;2022-11-12T01:20:16;30.67;;;16.03;;
73697;SDS011;62004;42.566;23.164;2022-11-12T01:22:42;26.92;;;13.25;;
73697;SDS011;62004;42.566;23.164;2022-11-12T01:25:07;33.03;;;16.60;;
73697;SDS011;62004;42.566;23.164;2022-11-12T01:27:32;27.08;;;14.32;;
73697;SDS011;62004;42.566;23.164;2022-11-12T01:29:58;28.67;;;14.48;;
73697;SDS011;62004;42.566;23.164;2022-11-12T01:32:23;25.90;;;13.68;;
73697;SDS011;62004;42.566;23.164;2022-11-12T01:34:49;25.85;;;13.68;;
73697;SDS011;62004;42.566;23.164;2022-11-12T01:39:49;24.10;;;13.85;;
73697;SDS011;62004;42.566;23.164;2022-11-12T01:42:15;23.27;;;12.53;;
73697;SDS011;62004;42.566;23.164;2022-11-12T01:44:41;21.57;;;13.00;;
73697;SDS011;62004;42.566;23.164;2022-11-12T01:47:19;23.27;;;11.57;;
73697;SDS011;62004;42.566;23.164;2022-11-12T01:49:49;21.38;;;12.07;;
73697;SDS011;62004;42.566;23.164;2022-11-12T01:52:27;19.27;;;11.93;;
73697;SDS011;62004;42.566;23.164;2022-11-12T01:54:54;17.48;;;10.70;;
73697;SDS011;62004;42.566;23.164;2022-11-12T01:57:24;14.93;;;9.50;;
73697;SDS011;62004;42.566;23.164;2022-11-12T01:59:52;14.13;;;9.60;;
73697;SDS011;62004;42.566;23.164;2022-11-12T02:02:20;15.65;;;9.30;;
73697;SDS011;62004;42.566;23.164;2022-11-12T02:04:45;16.45;;;9.68;;
73697;SDS011;62004;42.566;23.164;2022-11-12T02:07:10;12.82;;;8.18;;
73697;SDS011;62004;42.566;23.164;2022-11-12T02:09:36;14.57;;;8.70;;
73697;SDS011;62004;42.566;23.164;2022-11-12T02:12:01;14.07;;;9.20;;
73697;SDS011;62004;42.566;23.164;2022-11-12T02:14:27;16.00;;;9.27;;
73697;SDS011;62004;42.566;23.164;2022-11-12T02:16:52;15.00;;;9.10;;
73697;SDS011;62004;42.566;23.164;2022-11-12T02:19:18;13.38;;;8.57;;
73697;SDS011;62004;42.566;23.164;2022-11-12T02:21:43;18.53;;;10.40;;
73697;SDS011;62004;42.566;23.164;2022-11-12T02:26:38;13.35;;;8.45;;
73697;SDS011;62004;42.566;23.164;2022-11-12T02:29:04;13.05;;;8.00;;
73697;SDS011;62004;42.566;23.164;2022-11-12T02:31:30;11.35;;;7.85;;
73697;SDS011;62004;42.566;23.164;2022-11-12T02:33:55;14.68;;;8.95;;
73697;SDS011;62004;42.566;23.164;2022-11-12T02:36:21;14.77;;;6.95;;
73697;SDS011;62004;42.566;23.164;2022-11-12T02:38:47;16.33;;;9.15;;
73697;SDS011;62004;42.566;23.164;2022-11-12T02:41:12;17.83;;;10.05;;
73697;SDS011;62004;42.566;23.164;2022-11-12T02:43:38;12.15;;;7.60;;
73697;SDS011;62004;42.566;23.164;2022-11-12T02:46:03;16.65;;;10.52;;
73697;SDS011;62004;42.566;23.164;2022-11-12T02:48:29;19.55;;;9.32;;
73697;SDS011;62004;42.566;23.164;2022-11-12T02:50:54;16.10;;;10.50;;
73697;SDS011;62004;42.566;23.164;2022-11-12T02:53:19;19.20;;;11.33;;
73697;SDS011;62004;42.566;23.164;2022-11-12T02:55:45;17.63;;;10.80;;
73697;SDS011;62004;42.566;23.164;2022-11-12T02:58:10;17.57;;;10.67;;
73697;SDS011;62004;42.566;23.164;2022-11-12T03:00:35;19.47;;;11.23;;
73697;SDS011;62004;42.566;23.164;2022-11-12T03:03:01;19.65;;;11.40;;
73697;SDS011;62004;42.566;23.164;2022-11-12T03:05:30;20.48;;;12.10;;
73697;SDS011;62004;42.566;23.164;2022-11-12T03:10:22;24.70;;;12.43;;
73697;SDS011;62004;42.566;23.164;2022-11-12T03:12:47;22.67;;;11.30;;
73697;SDS011;62004;42.566;23.164;2022-11-12T03:15:13;21.30;;;11.53;;
73697;SDS011;62004;42.566;23.164;2022-11-12T03:17:38;22.95;;;13.25;;
73697;SDS011;62004;42.566;23.164;2022-11-12T03:20:05;25.17;;;13.85;;
73697;SDS011;62004;42.566;23.164;2022-11-12T03:22:30;24.35;;;14.32;;
73697;SDS011;62004;42.566;23.164;2022-11-12T03:24:55;18.83;;;10.82;;
73697;SDS011;62004;42.566;23.164;2022-11-12T03:27:21;24.40;;;12.00;;
73697;SDS011;62004;42.566;23.164;2022-11-12T03:29:46;21.80;;;12.43;;
73697;SDS011;62004;42.566;23.164;2022-11-12T03:32:11;20.63;;;11.37;;
73697;SDS011;62004;42.566;23.164;2022-11-12T03:34:36;15.40;;;10.17;;
73697;SDS011;62004;42.566;23.164;2022-11-12T03:37:02;19.77;;;10.63;;
73697;SDS011;62004;42.566;23.164;2022-11-12T03:39:27;20.50;;;12.55;;
73697;SDS011;62004;42.566;23.164;2022-11-12T03:41:53;19.90;;;11.73;;
73697;SDS011;62004;42.566;23.164;2022-11-12T03:44:18;22.07;;;13.37;;
73697;SDS011;62004;42.566;23.164;2022-11-12T03:46:43;19.73;;;12.77;;
73697;SDS011;62004;42.566;23.164;2022-11-12T03:49:08;17.38;;;10.90;;
73697;SDS011;62004;42.566;23.164;2022-11-12T03:51:34;15.20;;;10.80;;
73697;SDS011;62004;42.566;23.164;2022-11-12T03:53:59;18.23;;;11.53;;
73697;SDS011;62004;42.566;23.164;2022-11-12T03:56:25;16.35;;;10.23;;
73697;SDS011;62004;42.566;23.164;2022-11-12T03:58:50;15.07;;;9.70;;
73697;SDS011;62004;42.566;23.164;2022-11-12T04:01:15;10.53;;;8.03;;
73697;SDS011;62004;42.566;23.164;2022-11-12T04:03:40;11.03;;;7.57;;
73697;SDS011;62004;42.566;23.164;2022-11-12T04:06:06;9.97;;;6.73;;
73697;SDS011;62004;42.566;23.164;2022-11-12T04:08:50;8.50;;;6.47;;
73697;SDS011;62004;42.566;23.164;2022-11-12T04:11:15;12.50;;;8.95;;
73697;SDS011;62004;42.566;23.164;2022-11-12T04:13:41;16.45;;;9.80;;
73697;SDS011;62004;42.566;23.164;2022-11-12T04:18:51;12.73;;;7.80;;
73697;SDS011;62004;42.566;23.164;2022-11-12T04:21:36;10.90;;;7.53;;
73697;SDS011;62004;42.566;23.164;2022-11-12T04:27:04;14.15;;;8.70;;
73697;SDS011;62004;42.566;23.164;2022-11-12T04:29:30;13.68;;;7.63;;
73697;SDS011;62004;42.566;23.164;2022-11-12T04:32:14;10.70;;;7.50;;
73697;SDS011;62004;42.566;23.164;2022-11-12T04:34:39;16.90;;;10.38;;
73697;SDS011;62004;42.566;23.164;2022-11-12T04:37:04;14.98;;;9.05;;
73697;SDS011;62004;42.566;23.164;2022-11-12T04:39:30;14.30;;;10.35;;
73697;SDS011;62004;42.566;23.164;2022-11-12T04:41:55;19.83;;;12.55;;
73697;SDS011;62004;42.566;23.164;2022-11-12T04:44:39;19.10;;;9.95;;
73697;SDS011;62004;42.566;23.164;2022-11-12T04:47:23;16.90;;;11.45;;
73697;SDS011;62004;42.566;23.164;2022-11-12T04:49:48;17.77;;;11.38;;
73697;SDS011;62004;42.566;23.164;2022-11-12T04:52:14;16.70;;;11.32;;
73697;SDS011;62004;42.566;23.164;2022-11-12T04:54:39;19.48;;;13.00;;
73697;SDS011;62004;42.566;23.164;2022-11-12T04:57:05;16.98;;;10.85;;
73697;SDS011;62004;42.566;23.164;2022-11-12T04:59:30;15.82;;;9.73;;
73697;SDS011;62004;42.566;23.164;2022-11-12T05:01:55;16.17;;;10.70;;
73697;SDS011;62004;42.566;23.164;2022-11-12T05:04:20;18.58;;;12.38;;
73697;SDS011;62004;42.566;23.164;2022-11-12T05:06:46;16.60;;;10.43;;
73697;SDS011;62004;42.566;23.164;2022-11-12T05:09:21;18.40;;;12.80;;
73697;SDS011;62004;42.566;23.164;2022-11-12T05:11:47;18.95;;;11.75;;
73697;SDS011;62004;42.566;23.164;2022-11-12T05:14:12;19.20;;;12.38;;
73697;SDS011;62004;42.566;23.164;2022-11-12T05:16:37;15.82;;;11.02;;
73697;SDS011;62004;42.566;23.164;2022-11-12T05:19:03;16.33;;;10.35;;
73697;SDS011;62004;42.566;23.164;2022-11-12T05:21:28;14.38;;;9.98;;
73697;SDS011;62004;42.566;23.164;2022-11-12T05:24:12;12.65;;;9.23;;
73697;SDS011;62004;42.566;23.164;2022-11-12T05:26:38;11.95;;;8.18;;
73697;SDS011;62004;42.566;23.164;2022-11-12T05:29:03;13.45;;;9.32;;
73697;SDS011;62004;42.566;23.164;2022-11-12T05:31:28;14.38;;;8.43;;
73697;SDS011;62004;42.566;23.164;2022-11-12T05:33:54;13.03;;;9.23;;
73697;SDS011;62004;42.566;23.164;2022-11-12T05:36:19;11.88;;;8.48;;
73697;SDS011;62004;42.566;23.164;2022-11-12T05:38:46;16.42;;;10.82;;
73697;SDS011;62004;42.566;23.164;2022-11-12T05:41:11;16.45;;;11.32;;
73697;SDS011;62004;42.566;23.164;2022-11-12T05:43:36;15.23;;;10.60;;
73697;SDS011;62004;42.566;23.164;2022-11-12T05:46:02;16.17;;;10.73;;
73697;SDS011;62004;42.566;23.164;2022-11-12T05:48:27;14.60;;;9.38;;
73697;SDS011;62004;42.566;23.164;2022-11-12T05:50:52;13.23;;;9.00;;
73697;SDS011;62004;42.566;23.164;2022-11-12T05:53:18;10.43;;;7.57;;
73697;SDS011;62004;42.566;23.164;2022-11-12T05:55:43;12.50;;;7.85;;
73697;SDS011;62004;42.566;23.164;2022-11-12T05:58:08;10.83;;;7.17;;
73697;SDS011;62004;42.566;23.164;2022-11-12T06:00:34;11.70;;;8.77;;
73697;SDS011;62004;42.566;23.164;2022-11-12T06:03:06;13.25;;;9.40;;
73697;SDS011;62004;42.566;23.164;2022-11-12T06:05:32;12.80;;;8.63;;
73697;SDS011;62004;42.566;23.164;2022-11-12T06:07:57;4.28;;;3.30;;
73697;SDS011;62004;42.566;23.164;2022-11-12T06:10:22;11.20;;;8.10;;
73697;SDS011;62004;42.566;23.164;2022-11-12T06:12:48;12.50;;;7.55;;
73697;SDS011;62004;42.566;23.164;2022-11-12T06:15:13;9.55;;;6.82;;
73697;SDS011;62004;42.566;23.164;2022-11-12T06:17:38;7.95;;;5.53;;
73697;SDS011;62004;42.566;23.164;2022-11-12T06:20:04;7.05;;;5.32;;
73697;SDS011;62004;42.566;23.164;2022-11-12T06:22:29;5.88;;;5.28;;
73697;SDS011;62004;42.566;23.164;2022-11-12T06:24:54;7.07;;;4.43;;
73697;SDS011;62004;42.566;23.164;2022-11-12T06:27:20;8.83;;;6.70;;
73697;SDS011;62004;42.566;23.164;2022-11-12T06:29:45;7.43;;;6.60;;
73697;SDS011;62004;42.566;23.164;2022-11-12T06:32:10;8.00;;;5.43;;
73697;SDS011;62004;42.566;23.164;2022-11-12T06:34:36;6.53;;;5.93;;
73697;SDS011;62004;42.566;23.164;2022-11-12T06:37:01;6.43;;;3.83;;
73697;SDS011;62004;42.566;23.164;2022-11-12T06:39:27;7.85;;;5.82;;
73697;SDS011;62004;42.566;23.164;2022-11-12T06:41:52;6.45;;;5.45;;
73697;SDS011;62004;42.566;23.164;2022-11-12T06:44:18;5.65;;;4.88;;
73697;SDS011;62004;42.566;23.164;2022-11-12T06:46:44;6.53;;;5.38;;
73697;SDS011;62004;42.566;23.164;2022-11-12T06:49:09;6.13;;;4.30;;
73697;SDS011;62004;42.566;23.164;2022-11-12T06:51:34;6.63;;;4.67;;
73697;SDS011;62004;42.566;23.164;2022-11-12T06:53:59;5.68;;;4.82;;
73697;SDS011;62004;42.566;23.164;2022-11-12T06:56:25;5.90;;;5.30;;
73697;SDS011;62004;42.566;23.164;2022-11-12T06:58:50;5.00;;;3.73;;
73697;SDS011;62004;42.566;23.164;2022-11-12T07:01:16;4.43;;;3.53;;
73697;SDS011;62004;42.566;23.164;2022-11-12T07:03:42;5.00;;;4.10;;
73697;SDS011;62004;42.566;23.164;2022-11-12T07:06:12;3.85;;;3.25;;
73697;SDS011;62004;42.566;23.164;2022-11-12T07:08:38;5.07;;;3.80;;
73697;SDS011;62004;42.566;23.164;2022-11-12T07:11:04;4.00;;;3.67;;
73697;SDS011;62004;42.566;23.164;2022-11-12T07:13:32;6.75;;;4.50;;
73697;SDS011;62004;42.566;23.164;2022-11-12T07:15:58;5.78;;;4.63;;
73697;SDS011;62004;42.566;23.164;2022-11-12T07:18:23;4.90;;;4.03;;
73697;SDS011;62004;42.566;23.164;2022-11-12T07:20:49;5.40;;;4.65;;
73697;SDS011;62004;42.566;23.164;2022-11-12T07:23:14;3.22;;;2.50;;
73697;SDS011;62004;42.566;23.164;2022-11-12T07:25:40;3.78;;;3.45;;
73697;SDS011;62004;42.566;23.164;2022-11-12T07:28:05;6.30;;;4.50;;
73697;SDS011;62004;42.566;23.164;2022-11-12T07:30:30;3.63;;;3.30;;
73697;SDS011;62004;42.566;23.164;2022-11-12T07:32:59;4.20;;;3.80;;
73697;SDS011;62004;42.566;23.164;2022-11-12T07:35:24;4.55;;;4.07;;
73697;SDS011;62004;42.566;23.164;2022-11-12T07:37:49;4.70;;;3.85;;
73697;SDS011;62004;42.566;23.164;2022-11-12T07:40:14;4.20;;;3.40;;
73697;SDS011;62004;42.566;23.164;2022-11-12T07:42:40;7.35;;;6.75;;
73697;SDS011;62004;42.566;23.164;2022-11-12T07:45:05;9.00;;;8.40;;
73697;SDS011;62004;42.566;23.164;2022-11-12T07:47:31;7.50;;;7.00;;
73697;SDS011;62004;42.566;23.164;2022-11-12T07:49:56;8.48;;;8.02;;
73697;SDS011;62004;42.566;23.164;2022-11-12T07:52:21;7.63;;;7.23;;
73697;SDS011;62004;42.566;23.164;2022-11-12T07:54:46;7.83;;;7.43;;
73697;SDS011;62004;42.566;23.164;2022-11-12T07:57:12;6.15;;;5.75;;
73697;SDS011;62004;42.566;23.164;2022-11-12T07:59:37;5.82;;;5.43;;
73697;SDS011;62004;42.566;23.164;2022-11-12T08:02:03;4.50;;;4.10;;
73697;SDS011;62004;42.566;23.164;2022-11-12T08:04:28;3.67;;;3.38;;
73697;SDS011;62004;42.566;23.164;2022-11-12T08:06:53;5.95;;;5.55;;
73697;SDS011;62004;42.566;23.164;2022-11-12T08:09:18;5.60;;;5.20;;
73697;SDS011;62004;42.566;23.164;2022-11-12T08:11:44;6.20;;;5.70;;
73697;SDS011;62004;42.566;23.164;2022-11-12T08:14:09;5.65;;;5.25;;
73697;SDS011;62004;42.566;23.164;2022-11-12T08:16:34;5.17;;;4.87;;
73697;SDS011;62004;42.566;23.164;2022-11-12T08:18:59;3.73;;;3.43;;
73697;SDS011;62004;42.566;23.164;2022-11-12T08:21:25;4.03;;;3.63;;
73697;SDS011;62004;42.566;23.164;2022-11-12T08:23:50;5.53;;;5.03;;
73697;SDS011;62004;42.566;23.164;2022-11-12T08:26:16;5.07;;;4.57;;
73697;SDS011;62004;42.566;23.164;2022-11-12T08:28:42;4.72;;;4.32;;
73697;SDS011;62004;42.566;23.164;2022-11-12T08:33:32;4.07;;;3.77;;
73697;SDS011;62004;42.566;23.164;2022-11-12T08:36:00;4.78;;;4.20;;
73697;SDS011;62004;42.566;23.164;2022-11-12T08:38:26;3.85;;;3.55;;
73697;SDS011;62004;42.566;23.164;2022-11-12T08:40:51;5.37;;;4.90;;
73697;SDS011;62004;42.566;23.164;2022-11-12T08:43:16;4.45;;;3.95;;
73697;SDS011;62004;42.566;23.164;2022-11-12T08:45:42;4.28;;;3.92;;
73697;SDS011;62004;42.566;23.164;2022-11-12T08:48:08;3.70;;;3.40;;
73697;SDS011;62004;42.566;23.164;2022-11-12T08:50:34;4.22;;;3.85;;
73697;SDS011;62004;42.566;23.164;2022-11-12T08:52:59;5.10;;;4.70;;
73697;SDS011;62004;42.566;23.164;2022-11-12T08:55:26;4.13;;;3.58;;
73697;SDS011;62004;42.566;23.164;2022-11-12T08:57:51;4.25;;;3.95;;
73697;SDS011;62004;42.566;23.164;2022-11-12T09:00:16;5.80;;;3.27;;
73697;SDS011;62004;42.566;23.164;2022-11-12T09:02:42;2.80;;;2.60;;
73697;SDS011;62004;42.566;23.164;2022-11-12T09:05:07;3.97;;;2.87;;
73697;SDS011;62004;42.566;23.164;2022-11-12T09:07:32;3.55;;;2.92;;
73697;SDS011;62004;42.566;23.164;2022-11-12T09:09:58;3.58;;;2.85;;
73697;SDS011;62004;42.566;23.164;2022-11-12T09:12:23;3.30;;;2.25;;
73697;SDS011;62004;42.566;23.164;2022-11-12T09:14:49;2.22;;;1.75;;
73697;SDS011;62004;42.566;23.164;2022-11-12T09:17:15;3.78;;;2.20;;
73697;SDS011;62004;42.566;23.164;2022-11-12T09:19:40;3.35;;;2.67;;
73697;SDS011;62004;42.566;23.164;2022-11-12T09:22:06;4.13;;;2.55;;
73697;SDS011;62004;42.566;23.164;2022-11-12T09:24:31;3.72;;;3.40;;
73697;SDS011;62004;42.566;23.164;2022-11-12T09:26:57;2.28;;;2.08;;
73697;SDS011;62004;42.566;23.164;2022-11-12T09:29:22;3.33;;;2.22;;
73697;SDS011;62004;42.566;23.164;2022-11-12T09:31:48;2.00;;;1.80;;
73697;SDS011;62004;42.566;23.164;2022-11-12T09:34:13;2.55;;;2.22;;
73697;SDS011;62004;42.566;23.164;2022-11-12T09:36:39;3.05;;;2.78;;
73697;SDS011;62004;42.566;23.164;2022-11-12T09:39:04;2.30;;;2.10;;
73697;SDS011;62004;42.566;23.164;2022-11-12T09:44:01;3.13;;;2.00;;
73697;SDS011;62004;42.566;23.164;2022-11-12T09:49:11;4.22;;;2.40;;
73697;SDS011;62004;42.566;23.164;2022-11-12T09:51:45;1.58;;;1.48;;
73697;SDS011;62004;42.566;23.164;2022-11-12T09:56:49;2.80;;;2.55;;
73697;SDS011;62004;42.566;23.164;2022-11-12T09:59:16;3.75;;;1.35;;
73697;SDS011;62004;42.566;23.164;2022-11-12T10:10:04;1.55;;;1.35;;
73697;SDS011;62004;42.566;23.164;2022-11-12T10:13:11;2.35;;;1.73;;
73697;SDS011;62004;42.566;23.164;2022-11-12T10:23:55;2.00;;;1.50;;
73697;SDS011;62004;42.566;23.164;2022-11-12T10:26:22;2.15;;;1.83;;
73697;SDS011;62004;42.566;23.164;2022-11-12T10:28:50;1.90;;;1.30;;
73697;SDS011;62004;42.566;23.164;2022-11-12T10:31:20;2.42;;;1.20;;
73697;SDS011;62004;42.566;23.164;2022-11-12T10:33:46;1.42;;;1.17;;
73697;SDS011;62004;42.566;23.164;2022-11-12T10:36:30;2.58;;;1.08;;
73697;SDS011;62004;42.566;23.164;2022-11-12T10:38:58;1.85;;;1.08;;
73697;SDS011;62004;42.566;23.164;2022-11-12T10:41:31;1.67;;;1.58;;
73697;SDS011;62004;42.566;23.164;2022-11-12T10:44:01;1.80;;;1.40;;
73697;SDS011;62004;42.566;23.164;2022-11-12T10:46:29;2.53;;;1.65;;
73697;SDS011;62004;42.566;23.164;2022-11-12T10:49:00;2.40;;;1.65;;
73697;SDS011;62004;42.566;23.164;2022-11-12T10:51:31;1.80;;;1.45;;
73697;SDS011;62004;42.566;23.164;2022-11-12T10:53:59;2.35;;;1.25;;
73697;SDS011;62004;42.566;23.164;2022-11-12T10:56:44;2.58;;;1.35;;
73697;SDS011;62004;42.566;23.164;2022-11-12T10:59:12;1.80;;;1.40;;
73697;SDS011;62004;42.566;23.164;2022-11-12T11:01:40;2.35;;;1.60;;
73697;SDS011;62004;42.566;23.164;2022-11-12T11:04:16;1.83;;;1.38;;
73697;SDS011;62004;42.566;23.164;2022-11-12T11:06:56;2.05;;;1.42;;
73697;SDS011;62004;42.566;23.164;2022-11-12T11:09:27;2.53;;;1.67;;
73697;SDS011;62004;42.566;23.164;2022-11-12T11:11:52;3.50;;;1.77;;
73697;SDS011;62004;42.566;23.164;2022-11-12T11:16:50;2.78;;;1.67;;
73697;SDS011;62004;42.566;23.164;2022-11-12T11:19:17;2.47;;;1.73;;
73697;SDS011;62004;42.566;23.164;2022-11-12T11:21:47;2.95;;;1.60;;
73697;SDS011;62004;42.566;23.164;2022-11-12T11:32:41;2.60;;;2.38;;
73697;SDS011;62004;42.566;23.164;2022-11-12T11:38:14;3.13;;;2.63;;
73697;SDS011;62004;42.566;23.164;2022-11-12T11:40:43;1.60;;;1.30;;
73697;SDS011;62004;42.566;23.164;2022-11-12T11:43:31;3.03;;;1.60;;
73697;SDS011;62004;42.566;23.164;2022-11-12T11:48:46;2.92;;;1.70;;
73697;SDS011;62004;42.566;23.164;2022-11-12T11:56:24;3.22;;;1.58;;
73697;SDS011;62004;42.566;23.164;2022-11-12T12:21:25;5.70;;;1.00;;
73697;SDS011;62004;42.566;23.164;2022-11-12T12:24:16;1.63;;;1.00;;
73697;SDS011;62004;42.566;23.164;2022-11-12T12:26:45;0.98;;;0.65;;
73697;SDS011;62004;42.566;23.164;2022-11-12T12:32:19;1.80;;;0.93;;
73697;SDS011;62004;42.566;23.164;2022-11-12T12:34:50;1.77;;;1.38;;
73697;SDS011;62004;42.566;23.164;2022-11-12T12:37:21;2.40;;;1.40;;
73697;SDS011;62004;42.566;23.164;2022-11-12T12:39:54;1.80;;;1.33;;
73697;SDS011;62004;42.566;23.164;2022-11-12T12:42:28;2.58;;;2.05;;
73697;SDS011;62004;42.566;23.164;2022-11-12T12:44:58;2.60;;;2.40;;
73697;SDS011;62004;42.566;23.164;2022-11-12T12:47:29;1.40;;;1.20;;
73697;SDS011;62004;42.566;23.164;2022-11-12T12:49:59;4.25;;;2.58;;
73697;SDS011;62004;42.566;23.164;2022-11-12T12:52:29;1.95;;;1.60;;
73697;SDS011;62004;42.566;23.164;2022-11-12T12:54:54;2.88;;;1.83;;
73697;SDS011;62004;42.566;23.164;2022-11-12T12:57:26;2.15;;;1.52;;
73697;SDS011;62004;42.566;23.164;2022-11-12T13:02:53;2.33;;;1.23;;
73697;SDS011;62004;42.566;23.164;2022-11-12T13:05:29;2.85;;;1.30;;
73697;SDS011;62004;42.566;23.164;2022-11-12T13:18:09;2.00;;;1.77;;
73697;SDS011;62004;42.566;23.164;2022-11-12T13:20:37;2.45;;;1.55;;
73697;SDS011;62004;42.566;23.164;2022-11-12T13:23:07;1.48;;;1.02;;
73697;SDS011;62004;42.566;23.164;2022-11-12T13:25:35;1.25;;;1.15;;
73697;SDS011;62004;42.566;23.164;2022-11-12T13:32:56;2.55;;;0.90;;
73697;SDS011;62004;42.566;23.164;2022-11-12T13:45:47;1.33;;;1.23;;
73697;SDS011;62004;42.566;23.164;2022-11-12T13:48:56;0.82;;;0.60;;
73697;SDS011;62004;42.566;23.164;2022-11-12T13:51:06;0.30;;;0.30;;
73697;SDS011;62004;42.566;23.164;2022-11-12T13:53:37;1.40;;;1.30;;
73697;SDS011;62004;42.566;23.164;2022-11-12T13:56:02;1.17;;;1.00;;
73697;SDS011;62004;42.566;23.164;2022-11-12T13:58:32;1.27;;;1.17;;
73697;SDS011;62004;42.566;23.164;2022-11-12T14:00:59;1.05;;;1.00;;
73697;SDS011;62004;42.566;23.164;2022-11-12T14:03:45;1.30;;;1.20;;
73697;SDS011;62004;42.566;23.164;2022-11-12T14:09:22;0.80;;;0.60;;
73697;SDS011;62004;42.566;23.164;2022-11-12T14:22:39;1.48;;;1.02;;
73697;SDS011;62004;42.566;23.164;2022-11-12T14:25:12;1.45;;;1.35;;
73697;SDS011;62004;42.566;23.164;2022-11-12T14:27:38;1.50;;;1.40;;
73697;SDS011;62004;42.566;23.164;2022-11-12T14:30:17;1.27;;;1.17;;
73697;SDS011;62004;42.566;23.164;2022-11-12T14:33:08;1.48;;;1.38;;
73697;SDS011;62004;42.566;23.164;2022-11-12T14:35:36;1.23;;;1.08;;
73697;SDS011;62004;42.566;23.164;2022-11-12T14:40:50;1.00;;;0.93;;
73697;SDS011;62004;42.566;23.164;2022-11-12T14:43:25;1.20;;;0.80;;
73697;SDS011;62004;42.566;23.164;2022-11-12T14:45:56;2.83;;;2.63;;
73697;SDS011;62004;42.566;23.164;2022-11-12T14:48:22;1.88;;;1.25;;
73697;SDS011;62004;42.566;23.164;2022-11-12T14:50:48;2.13;;;1.92;;
73697;SDS011;62004;42.566;23.164;2022-11-12T14:53:33;2.30;;;2.10;;
73697;SDS011;62004;42.566;23.164;2022-11-12T14:56:02;2.22;;;2.00;;
73697;SDS011;62004;42.566;23.164;2022-11-12T14:58:28;2.30;;;2.20;;
73697;SDS011;62004;42.566;23.164;2022-11-12T15:00:55;2.08;;;1.88;;
73697;SDS011;62004;42.566;23.164;2022-11-12T15:03:22;2.17;;;1.98;;
73697;SDS011;62004;42.566;23.164;2022-11-12T15:05:53;2.15;;;1.95;;
73697;SDS011;62004;42.566;23.164;2022-11-12T15:08:34;1.67;;;1.58;;
73697;SDS011;62004;42.566;23.164;2022-11-12T15:11:13;2.42;;;2.22;;
73697;SDS011;62004;42.566;23.164;2022-11-12T15:13:50;2.03;;;1.83;;
73697;SDS011;62004;42.566;23.164;2022-11-12T15:16:22;2.22;;;2.03;;
73697;SDS011;62004;42.566;23.164;2022-11-12T15:19:01;2.92;;;2.58;;
73697;SDS011;62004;42.566;23.164;2022-11-12T15:21:43;1.58;;;1.48;;
73697;SDS011;62004;42.566;23.164;2022-11-12T15:26:50;2.28;;;1.55;;
73697;SDS011;62004;42.566;23.164;2022-11-12T15:32:00;2.00;;;1.70;;
73697;SDS011;62004;42.566;23.164;2022-11-12T15:37:05;1.42;;;1.33;;
73697;SDS011;62004;42.566;23.164;2022-11-12T15:39:32;2.05;;;1.95;;
73697;SDS011;62004;42.566;23.164;2022-11-12T15:42:40;1.80;;;1.52;;
73697;SDS011;62004;42.566;23.164;2022-11-12T15:45:03;1.50;;;1.40;;
73697;SDS011;62004;42.566;23.164;2022-11-12T15:47:34;0.90;;;0.60;;
73697;SDS011;62004;42.566;23.164;2022-11-12T15:49:59;2.15;;;1.08;;
73697;SDS011;62004;42.566;23.164;2022-11-12T15:52:24;1.00;;;0.80;;
73697;SDS011;62004;42.566;23.164;2022-11-12T15:54:50;0.77;;;0.50;;
73697;SDS011;62004;42.566;23.164;2022-11-12T15:57:16;1.70;;;1.60;;
73697;SDS011;62004;42.566;23.164;2022-11-12T15:59:44;1.60;;;1.50;;
73697;SDS011;62004;42.566;23.164;2022-11-12T16:02:16;2.42;;;2.22;;
73697;SDS011;62004;42.566;23.164;2022-11-12T16:04:41;1.77;;;1.30;;
73697;SDS011;62004;42.566;23.164;2022-11-12T16:07:07;0.80;;;0.50;;
73697;SDS011;62004;42.566;23.164;2022-11-12T16:09:33;1.15;;;0.63;;
73697;SDS011;62004;42.566;23.164;2022-11-12T16:11:58;1.80;;;1.38;;
73697;SDS011;62004;42.566;23.164;2022-11-12T16:14:24;1.40;;;1.30;;
73697;SDS011;62004;42.566;23.164;2022-11-12T16:16:50;1.55;;;1.42;;
73697;SDS011;62004;42.566;23.164;2022-11-12T16:19:16;1.92;;;1.80;;
73697;SDS011;62004;42.566;23.164;2022-11-12T16:21:42;2.95;;;2.00;;
73697;SDS011;62004;42.566;23.164;2022-11-12T16:24:07;2.88;;;1.33;;
73697;SDS011;62004;42.566;23.164;2022-11-12T16:26:33;1.90;;;1.60;;
73697;SDS011;62004;42.566;23.164;2022-11-12T16:28:59;2.30;;;2.10;;
73697;SDS011;62004;42.566;23.164;2022-11-12T16:31:25;2.65;;;2.45;;
73697;SDS011;62004;42.566;23.164;2022-11-12T16:33:50;4.13;;;3.00;;
73697;SDS011;62004;42.566;23.164;2022-11-12T16:36:16;2.92;;;1.92;;
73697;SDS011;62004;42.566;23.164;2022-11-12T16:38:41;4.15;;;3.38;;
73697;SDS011;62004;42.566;23.164;2022-11-12T16:41:11;4.47;;;3.53;;
73697;SDS011;62004;42.566;23.164;2022-11-12T16:43:38;3.47;;;3.17;;
73697;SDS011;62004;42.566;23.164;2022-11-12T16:46:21;4.15;;;3.08;;
73697;SDS011;62004;42.566;23.164;2022-11-12T16:48:50;7.15;;;4.82;;